Time;durP1;ratioP1;P1;durP2;ratioP2;P2;SDS_P1;SDS_P2;PMS_P1;PMS_P2;Temp;Humidity;BMP_temperature;BMP_pressure;BME280_temperature;BME280_humidity;BME280_pressure;Samples;Min_cycle;Max_cycle;Signal;HPM_P1;HPM_P2
2022/09/13 00:01:02;;;;;;;7.93;7.22;;;14.30;99.90;;;-141.84;76.13;19340.31;5093362;28;20196;-67
2022/09/13 00:03:31;;;;;;;8.43;7.65;;;14.30;99.90;;;-141.84;75.77;19358.63;5093052;28;20295;-67
2022/09/13 00:06:07;;;;;;;8.40;7.60;;;14.30;99.90;;;-141.84;75.48;19370.81;5093254;28;20756;-64
2022/09/13 00:08:35;;;;;;;8.05;7.35;;;14.20;99.90;;;-141.84;76.03;19338.28;5093436;28;20180;-65
2022/09/13 00:11:04;;;;;;;8.88;7.97;;;14.20;99.90;;;-141.84;76.09;19350.50;5093240;28;20228;-65
2022/09/13 00:13:32;;;;;;;8.02;7.32;;;14.20;99.90;;;-141.84;75.47;19366.75;5092993;28;20203;-65
2022/09/13 00:16:02;;;;;;;8.77;7.85;;;14.30;99.90;;;-141.84;75.44;19354.56;5092843;28;20601;-66
2022/09/13 00:18:32;;;;;;;8.32;7.63;;;14.30;99.90;;;-141.84;75.30;19366.75;5092945;28;20255;-63
2022/09/13 00:21:10;;;;;;;8.55;7.80;;;14.40;99.90;;;-141.84;74.96;19374.88;5092925;28;20196;-64
2022/09/13 00:23:39;;;;;;;8.07;7.30;;;14.30;99.90;;;-141.84;75.29;19378.94;5092695;28;20338;-66
2022/09/13 00:26:10;;;;;;;8.68;7.88;;;14.40;99.90;;;-141.84;75.48;19336.25;5092818;28;20257;-64
2022/09/13 00:28:39;;;;;;;8.93;8.05;;;14.40;99.90;;;-141.84;75.50;19342.34;5092702;28;20294;-63
2022/09/13 00:31:10;;;;;;;7.97;7.18;;;14.40;99.90;;;-141.84;75.26;19380.97;5092449;28;20220;-66
2022/09/13 00:33:39;;;;;;;7.95;7.25;;;14.30;99.90;;;-141.84;75.57;19317.97;5092863;28;20184;-65
2022/09/13 00:36:10;;;;;;;9.43;8.60;;;14.30;99.90;;;-141.84;75.26;19352.53;5092859;28;20562;-64
2022/09/13 00:38:40;;;;;;;7.72;7.03;;;14.30;99.90;;;-141.84;75.86;19332.19;5092896;28;20181;-67
2022/09/13 00:41:13;;;;;;;8.45;7.65;;;14.30;99.90;;;-141.84;76.11;19311.88;5092723;28;20604;-65
2022/09/13 00:43:46;;;;;;;7.90;7.20;;;14.30;99.90;;;-141.84;75.66;19322.03;5092542;28;20191;-64
2022/09/13 00:46:24;;;;;;;7.93;7.25;;;14.30;99.90;;;-141.84;75.52;19311.88;5092673;28;20238;-64
2022/09/13 00:49:01;;;;;;;9.13;7.80;;;14.20;99.90;;;-141.84;74.85;19364.72;5092683;28;20192;-64
2022/09/13 00:51:31;;;;;;;8.35;7.57;;;14.20;99.90;;;-141.84;75.26;19320.00;5092540;28;20204;-66
2022/09/13 00:54:01;;;;;;;7.68;7.00;;;14.30;99.90;;;-141.84;75.96;19291.56;5092125;28;20204;-65
2022/09/13 00:56:37;;;;;;;8.07;7.38;;;14.20;99.90;;;-141.84;76.30;19261.06;5092456;28;20207;-64
2022/09/13 00:59:12;;;;;;;8.45;7.65;;;14.20;99.90;;;-141.84;76.65;19289.53;5092300;28;20650;-66
2022/09/13 01:01:47;;;;;;;8.18;7.43;;;14.10;99.90;;;-141.84;76.40;19299.69;5091694;28;20521;-65
2022/09/13 01:04:20;;;;;;;9.10;7.10;;;14.10;99.90;;;-141.84;76.67;19248.88;5092322;28;20224;-65
2022/09/13 01:06:52;;;;;;;8.48;7.68;;;14.10;99.90;;;-141.84;76.83;19315.94;5092482;28;20219;-65
2022/09/13 01:09:20;;;;;;;8.90;8.00;;;14.10;99.90;;;-141.84;75.55;19334.22;5092201;28;20207;-65
2022/09/13 01:11:54;;;;;;;7.88;7.18;;;14.10;99.90;;;-141.84;76.23;19275.31;5091741;28;20219;-66
2022/09/13 01:14:24;;;;;;;7.70;6.90;;;14.10;99.90;;;-141.84;77.08;19244.81;5091833;28;20640;-66
2022/09/13 01:16:53;;;;;;;8.55;7.75;;;14.00;99.90;;;-141.84;76.97;19281.41;5092011;28;20204;-65
2022/09/13 01:19:22;;;;;;;7.97;7.20;;;14.00;99.90;;;-141.84;76.38;19252.94;5092283;28;20294;-66
2022/09/13 01:22:28;;;;;;;8.40;7.70;;;14.00;99.90;;;-141.84;75.47;19303.75;5091908;28;20245;-64
2022/09/13 01:25:30;;;;;;;8.48;7.63;;;14.10;99.90;;;-141.84;75.70;19283.44;5092182;28;20188;-65
2022/09/13 01:28:25;;;;;;;7.53;6.82;;;14.10;99.90;;;-141.84;76.93;19252.94;5091530;28;20192;-65
2022/09/13 01:31:02;;;;;;;9.02;7.70;;;14.10;99.90;;;-141.84;77.60;19212.31;5091528;28;20213;-65
2022/09/13 01:33:52;;;;;;;9.40;7.45;;;14.00;99.90;;;-141.84;77.48;19228.56;5091545;28;20184;-65
2022/09/13 01:36:51;;;;;;;7.72;7.00;;;14.00;99.90;;;-141.84;77.05;19257.00;5091998;28;20214;-65
2022/09/13 01:39:41;;;;;;;8.05;7.28;;;14.00;99.90;;;-141.84;77.52;19224.50;5091726;28;20188;-64
2022/09/13 01:42:21;;;;;;;10.07;7.05;;;13.90;99.90;;;-141.84;77.04;19238.72;5091486;28;20287;-66
2022/09/13 01:45:09;;;;;;;8.68;7.72;;;13.90;99.90;;;-141.84;76.49;19263.09;5090984;28;20404;-67
2022/09/13 01:47:53;;;;;;;7.95;6.63;;;14.00;99.90;;;-141.84;76.83;19236.69;5091187;28;20659;-65
2022/09/13 01:50:35;;;;;;;7.53;6.78;;;14.00;99.90;;;-141.84;77.22;19187.91;5091452;28;20180;-64
2022/09/13 01:53:18;;;;;;;8.25;7.32;;;13.90;99.90;;;-141.84;76.80;19210.28;5091530;28;20200;-64
2022/09/13 01:55:57;;;;;;;7.65;6.93;;;13.90;99.90;;;-141.84;77.40;19232.63;5091455;28;20188;-65
2022/09/13 01:58:33;;;;;;;7.15;6.55;;;13.90;99.90;;;-141.84;77.44;19187.91;5091190;28;20195;-64
2022/09/13 02:01:12;;;;;;;8.57;7.78;;;13.90;99.90;;;-141.84;77.33;19210.28;5091111;28;20180;-65
2022/09/13 02:03:52;;;;;;;7.40;6.80;;;13.90;99.90;;;-141.84;77.30;19187.91;5091212;28;20195;-66
2022/09/13 02:06:26;;;;;;;7.80;7.10;;;13.90;99.90;;;-141.84;78.20;19189.97;5090876;28;20188;-63
2022/09/13 02:09:00;;;;;;;7.47;6.78;;;13.90;99.90;;;-141.84;77.60;19147.28;5091287;28;20184;-65
2022/09/13 02:11:29;;;;;;;7.82;7.03;;;13.80;99.90;;;-141.84;78.08;19161.50;5090830;28;20261;-67
2022/09/13 02:14:05;;;;;;;8.48;6.97;;;13.80;99.90;;;-141.84;77.35;19187.91;5091163;28;20219;-66
2022/09/13 02:16:39;;;;;;;8.13;7.32;;;13.90;99.90;;;-141.84;76.89;19206.22;5090870;28;20191;-66
2022/09/13 02:19:17;;;;;;;12.60;7.60;;;13.90;99.90;;;-141.84;76.05;19198.09;5090759;28;20180;-67
2022/09/13 02:21:52;;;;;;;7.65;6.85;;;13.90;99.90;;;-141.84;76.74;19212.31;5091087;28;20184;-65
2022/09/13 02:24:28;;;;;;;7.55;6.85;;;13.90;99.90;;;-141.84;77.27;19155.41;5090634;28;20211;-65
2022/09/13 02:27:02;;;;;;;7.65;6.70;;;13.90;99.90;;;-141.84;76.68;19212.31;5090971;28;20180;-65
2022/09/13 02:29:35;;;;;;;8.32;7.03;;;13.90;99.90;;;-141.84;77.30;19157.44;5090606;28;20191;-65
2022/09/13 02:32:12;;;;;;;8.27;7.47;;;13.80;99.90;;;-141.84;77.76;19147.28;5090820;28;20208;-66
2022/09/13 02:34:51;;;;;;;8.20;6.53;;;13.80;99.90;;;-141.84;78.39;19145.25;5090501;28;20187;-64
2022/09/13 02:37:20;;;;;;;8.13;7.32;;;13.70;99.90;;;-141.84;78.28;19171.66;5090756;28;20192;-65
2022/09/13 02:39:55;;;;;;;7.07;6.47;;;13.70;99.90;;;-141.84;78.33;19155.41;5090494;28;20200;-64
2022/09/13 02:42:31;;;;;;;7.70;7.00;;;13.70;99.90;;;-141.84;78.22;19157.44;5090135;28;20311;-64
2022/09/13 02:45:00;;;;;;;6.90;6.13;;;13.70;99.90;;;-141.84;78.85;19070.06;5090520;28;20184;-64
2022/09/13 02:47:44;;;;;;;7.53;6.88;;;13.60;99.90;;;-141.84;79.75;19116.81;5090481;28;20219;-64
2022/09/13 02:50:32;;;;;;;7.63;6.70;;;13.60;99.90;;;-141.84;79.70;19092.41;5090269;28;20191;-64
2022/09/13 02:53:14;;;;;;;9.05;7.18;;;13.40;99.90;;;-141.84;79.91;19094.44;5090310;28;20572;-66
2022/09/13 02:55:55;;;;;;;7.68;6.97;;;13.50;99.90;;;-141.84;79.03;19106.66;5092727;28;20623;-65
2022/09/13 02:58:34;;;;;;;8.38;7.05;;;13.50;99.90;;;-141.84;78.30;19110.72;5094477;28;20184;-64
2022/09/13 03:01:02;;;;;;;7.83;7.03;;;13.60;99.90;;;-141.84;78.96;19129.00;5094244;28;20187;-65
2022/09/13 03:03:30;;;;;;;8.15;7.05;;;13.60;99.90;;;-141.84;77.97;19118.84;5094396;28;20306;-65
2022/09/13 03:06:00;;;;;;;8.23;7.35;;;13.60;99.90;;;-141.84;78.92;19100.53;5093934;28;20680;-65
2022/09/13 03:08:30;;;;;;;7.47;6.63;;;13.50;99.90;;;-141.84;79.34;19072.09;5093699;28;20207;-65
2022/09/13 03:11:13;;;;;;;8.68;7.10;;;13.50;99.90;;;-141.84;80.12;19068.03;5094079;28;20203;-65
2022/09/13 03:14:16;;;;;;;6.80;6.20;;;13.50;99.90;;;-141.84;79.75;19082.25;5094227;28;20185;-66
2022/09/13 03:17:05;;;;;;;7.50;6.50;;;13.50;99.90;;;-141.84;80.18;19061.94;5093858;28;20206;-65
2022/09/13 03:19:53;;;;;;;7.40;6.70;;;13.50;99.90;;;-141.84;80.16;19057.88;5093933;28;20591;-67
2022/09/13 03:23:29;;;;;;;7.97;7.20;;;13.40;99.90;;;-141.84;79.29;19074.13;5094043;28;20211;-64
2022/09/13 03:26:26;;;;;;;7.25;6.45;;;13.50;99.90;;;-141.84;79.19;19080.22;5094245;28;20270;-65
2022/09/13 03:29:13;;;;;;;8.02;7.18;;;13.40;99.90;;;-141.84;78.34;19090.38;5088759;28;20204;-65
2022/09/13 03:31:58;;;;;;;9.07;7.60;;;13.50;99.90;;;-141.84;79.03;19068.03;5093713;28;20234;-64
2022/09/13 03:34:47;;;;;;;7.93;7.15;;;13.50;99.90;;;-141.84;78.70;19080.22;5093906;28;20271;-63
2022/09/13 03:37:29;;;;;;;7.90;7.10;;;13.50;99.90;;;-141.84;79.18;19082.25;5093810;28;20570;-64
2022/09/13 03:40:07;;;;;;;8.10;6.97;;;13.50;99.90;;;-141.84;79.88;19057.88;5093935;28;20238;-64
2022/09/13 03:42:46;;;;;;;8.23;6.82;;;13.40;99.90;;;-141.84;78.54;19053.81;5093594;28;20275;-65
2022/09/13 03:45:22;;;;;;;7.75;6.90;;;13.50;99.90;;;-141.84;78.75;19059.91;5093841;28;20184;-66
2022/09/13 03:47:52;;;;;;;7.70;6.25;;;13.50;99.90;;;-141.84;79.57;19031.47;5093784;28;20252;-64
2022/09/13 03:50:24;;;;;;;7.95;7.15;;;13.50;99.90;;;-141.84;79.74;19053.81;5094250;28;20208;-66
2022/09/13 03:53:00;;;;;;;7.30;6.60;;;13.50;99.90;;;-141.84;79.45;19039.59;5093758;28;20223;-64
2022/09/13 03:55:32;;;;;;;7.47;6.70;;;13.50;99.90;;;-141.84;79.72;19057.88;5093575;28;20212;-65
2022/09/13 03:58:01;;;;;;;7.40;6.40;;;13.50;99.90;;;-141.84;79.42;19009.09;5093276;28;20181;-68
2022/09/13 04:00:29;;;;;;;7.90;6.40;;;13.60;99.90;;;-141.84;79.21;19072.09;5093280;28;20281;-64
2022/09/13 04:02:57;;;;;;;6.85;6.03;;;13.60;99.90;;;-141.84;78.87;19078.19;5093155;28;20589;-66
2022/09/13 04:05:25;;;;;;;7.35;6.38;;;13.60;99.90;;;-141.84;79.40;19055.84;5093124;28;20200;-64
2022/09/13 04:07:53;;;;;;;8.80;7.17;;;13.60;99.90;;;-141.84;79.93;19039.59;5093394;28;20664;-66
2022/09/13 04:10:23;;;;;;;7.25;6.38;;;13.60;99.90;;;-141.84;80.01;19013.16;5094315;28;20200;-64
2022/09/13 04:12:54;;;;;;;7.63;6.60;;;13.50;99.90;;;-141.84;79.59;19047.72;5093305;28;20220;-64
2022/09/13 04:15:23;;;;;;;7.95;7.20;;;13.50;99.90;;;-141.84;80.32;19013.16;5093048;28;20191;-65
2022/09/13 04:17:51;;;;;;;8.05;6.70;;;13.50;99.90;;;-141.84;79.20;19068.03;5093201;28;20667;-63
2022/09/13 04:20:19;;;;;;;7.22;6.53;;;13.50;99.90;;;-141.84;79.66;19053.81;5093436;28;20200;-64
2022/09/13 04:22:52;;;;;;;8.17;7.30;;;13.60;99.90;;;-141.84;78.66;19066.00;5093113;28;20293;-64
2022/09/13 04:25:21;;;;;;;8.45;7.55;;;13.60;99.90;;;-141.84;79.54;19033.50;5093205;28;20540;-64
2022/09/13 04:27:55;;;;;;;9.45;7.53;;;13.60;99.90;;;-141.84;79.51;19041.63;5092788;28;20671;-64
2022/09/13 04:30:24;;;;;;;8.13;7.10;;;13.60;99.90;;;-141.84;79.30;19025.38;5092586;28;20185;-64
2022/09/13 04:32:52;;;;;;;9.07;7.50;;;13.60;99.90;;;-141.84;78.67;19102.56;5092785;28;20220;-64
2022/09/13 04:35:20;;;;;;;8.90;6.63;;;13.60;99.90;;;-141.84;78.28;19098.50;5092923;28;20196;-65
2022/09/13 04:37:48;;;;;;;7.60;6.30;;;13.60;99.90;;;-141.84;77.65;19082.25;5092856;28;20211;-64
2022/09/13 04:40:16;;;;;;;7.70;6.80;;;13.70;99.90;;;-141.84;78.06;19078.19;5093046;28;20224;-63
2022/09/13 04:42:45;;;;;;;7.10;6.40;;;13.70;99.90;;;-141.84;78.40;19096.47;5092504;28;20207;-64
2022/09/13 04:45:14;;;;;;;8.93;7.60;;;13.70;99.90;;;-141.84;79.42;19011.13;5092609;28;20671;-64
2022/09/13 04:47:42;;;;;;;8.15;7.13;;;13.70;99.90;;;-141.84;79.31;19076.16;5092069;28;20261;-63
2022/09/13 04:50:10;;;;;;;7.35;6.53;;;13.70;99.90;;;-141.84;79.68;19021.31;5092422;28;20204;-67
2022/09/13 04:52:38;;;;;;;8.47;7.30;;;13.70;99.90;;;-141.84;80.15;19041.63;5092085;28;20219;-65
2022/09/13 04:55:07;;;;;;;8.25;7.10;;;13.50;99.90;;;-141.84;78.17;19078.19;5092418;28;20200;-65
2022/09/13 04:57:35;;;;;;;11.45;7.50;;;13.70;99.90;;;-141.84;77.95;19118.84;5092115;28;20212;-64
2022/09/13 05:00:05;;;;;;;15.50;7.87;;;13.80;99.90;;;-141.84;77.99;19082.25;5092075;28;20700;-64
2022/09/13 05:02:34;;;;;;;8.60;7.78;;;13.80;99.90;;;-141.84;76.23;19126.97;5091900;28;20234;-64
2022/09/13 05:05:03;;;;;;;8.43;7.53;;;13.90;99.90;;;-141.84;76.46;19124.94;5092016;28;20694;-64
2022/09/13 05:07:30;;;;;;;7.75;6.97;;;14.00;99.90;;;-141.84;77.08;19090.38;5092268;28;20204;-64
2022/09/13 05:09:58;;;;;;;9.43;7.55;;;14.00;99.90;;;-141.84;77.14;19133.06;5092429;28;20204;-64
2022/09/13 05:12:26;;;;;;;11.25;7.63;;;14.10;99.90;;;-141.84;75.84;19151.34;5091921;28;20196;-64
2022/09/13 05:14:54;;;;;;;10.40;7.88;;;14.20;99.90;;;-141.84;76.35;19163.53;5092133;28;20277;-64
2022/09/13 05:17:22;;;;;;;7.90;7.10;;;14.20;99.90;;;-141.84;75.76;19187.91;5091733;28;20197;-64
2022/09/13 05:19:52;;;;;;;9.35;7.20;;;14.30;99.90;;;-141.84;74.92;19200.13;5090914;28;20212;-65
2022/09/13 05:22:20;;;;;;;8.27;7.47;;;14.40;99.90;;;-141.84;75.52;19179.78;5091721;28;20204;-65
2022/09/13 05:24:48;;;;;;;9.20;7.68;;;14.40;99.90;;;-141.84;75.99;19157.44;5091141;28;20211;-64
2022/09/13 05:27:16;;;;;;;9.77;7.15;;;14.40;99.90;;;-141.84;74.87;19167.59;5091472;28;20354;-64
2022/09/13 05:29:44;;;;;;;7.72;6.95;;;14.40;99.90;;;-141.84;75.36;19179.78;5091530;28;20196;-64
2022/09/13 05:32:12;;;;;;;9.30;7.10;;;14.50;99.90;;;-141.84;74.99;19228.56;5091166;28;20264;-64
2022/09/13 05:34:40;;;;;;;7.70;6.90;;;14.60;99.90;;;-141.84;74.68;19216.38;5091352;28;20220;-64
2022/09/13 05:37:09;;;;;;;8.57;7.20;;;14.70;99.90;;;-141.84;72.84;19285.47;5091289;28;20196;-65
2022/09/13 05:39:37;;;;;;;9.10;7.43;;;14.90;99.90;;;-141.84;72.95;19295.63;5091052;28;20602;-64
2022/09/13 05:42:25;;;;;;;7.38;6.68;;;15.00;99.90;;;-141.84;72.13;19350.50;5092278;28;20188;-65
2022/09/13 05:44:53;;;;;;;10.20;7.53;;;15.10;99.90;;;-141.84;71.27;19391.13;5091992;28;20200;-65
2022/09/13 05:47:21;;;;;;;8.15;7.32;;;15.20;99.90;;;-141.84;70.50;19443.97;5091886;28;20210;-65
2022/09/13 05:49:49;;;;;;;8.13;7.22;;;15.40;99.90;;;-141.84;70.35;19443.97;5091678;28;20203;-67
2022/09/13 05:52:38;;;;;;;7.70;6.63;;;15.40;99.90;;;-141.84;69.52;19462.25;5091979;28;20207;-64
2022/09/13 05:55:08;;;;;;;7.95;7.15;;;15.60;99.90;;;-141.84;69.69;19492.75;5091326;28;20203;-64
2022/09/13 05:57:37;;;;;;;7.63;6.93;;;15.70;99.90;;;-141.84;68.99;19545.56;5090994;28;20211;-65
2022/09/13 06:00:06;;;;;;;7.90;7.10;;;15.70;99.90;;;-141.84;68.35;19551.69;5091129;28;20204;-65
2022/09/13 06:02:34;;;;;;;7.03;6.32;;;15.80;99.90;;;-141.84;68.89;19567.94;5091241;28;20229;-64
2022/09/13 06:05:02;;;;;;;7.63;6.82;;;15.80;99.90;;;-141.84;69.36;19517.13;5091238;28;20200;-65
2022/09/13 06:07:30;;;;;;;7.95;7.10;;;15.80;99.90;;;-141.84;68.71;19604.50;5090949;28;20196;-63
2022/09/13 06:10:00;;;;;;;7.75;7.03;;;15.90;99.90;;;-141.84;67.73;19643.13;5090820;28;20283;-64
2022/09/13 06:12:28;;;;;;;8.95;7.63;;;16.00;99.90;;;-141.84;67.28;19661.41;5090549;28;20200;-64
2022/09/13 06:14:56;;;;;;;8.10;7.30;;;16.10;99.90;;;-141.84;67.68;19655.31;5092122;28;20223;-64
2022/09/13 06:17:24;;;;;;;9.02;7.50;;;16.10;99.90;;;-141.84;67.57;19655.31;5091407;28;20671;-66
2022/09/13 06:19:52;;;;;;;9.35;7.40;;;16.10;99.90;;;-141.84;68.79;19590.28;5091513;28;20196;-64
2022/09/13 06:22:20;;;;;;;7.90;7.07;;;16.00;99.90;;;-141.84;69.12;19576.06;5091727;28;20204;-64
2022/09/13 06:24:48;;;;;;;7.32;6.57;;;16.00;99.90;;;-141.84;69.86;19549.63;5091097;28;20211;-65
2022/09/13 06:27:17;;;;;;;7.45;6.75;;;15.90;99.90;;;-141.84;70.63;19513.06;5090966;28;20226;-64
2022/09/13 06:29:46;;;;;;;8.52;7.47;;;15.90;99.90;;;-141.84;71.39;19502.91;5090809;28;20225;-64
2022/09/13 06:32:13;;;;;;;7.75;7.05;;;15.80;99.90;;;-141.84;72.29;19466.31;5090486;28;20626;-63
2022/09/13 06:34:42;;;;;;;7.75;6.95;;;15.80;99.90;;;-141.84;73.04;19456.16;5091673;28;20224;-64
2022/09/13 06:37:10;;;;;;;8.45;7.57;;;15.70;99.90;;;-141.84;74.18;19443.97;5091687;28;20207;-63
2022/09/13 06:39:38;;;;;;;12.30;8.38;;;15.70;99.90;;;-141.84;74.54;19435.84;5091814;28;20203;-65
2022/09/13 06:42:06;;;;;;;9.88;8.63;;;15.60;99.90;;;-141.84;74.18;19378.94;5091356;28;20233;-64
2022/09/13 06:44:36;;;;;;;12.27;7.80;;;15.60;99.90;;;-141.84;75.27;19393.16;5091256;28;20192;-63
2022/09/13 06:47:04;;;;;;;8.77;7.88;;;15.60;99.90;;;-141.84;75.94;19364.72;5091540;28;20205;-64
2022/09/13 06:49:32;;;;;;;9.55;8.27;;;15.60;99.90;;;-141.84;76.18;19370.81;5091139;28;20215;-65
2022/09/13 06:52:00;;;;;;;12.43;8.98;;;15.60;99.90;;;-141.84;76.15;19334.22;5090538;28;20356;-65
2022/09/13 06:54:28;;;;;;;10.18;8.48;;;15.60;99.90;;;-141.84;76.35;19358.63;5091510;28;20220;-64
2022/09/13 06:56:56;;;;;;;9.90;8.32;;;15.60;99.90;;;-141.84;76.83;19317.97;5091155;28;20200;-64
2022/09/13 06:59:24;;;;;;;9.88;8.85;;;15.60;99.90;;;-141.84;77.39;19317.97;5090424;28;20568;-64
2022/09/13 07:01:54;;;;;;;9.93;8.40;;;15.50;99.90;;;-141.84;77.54;19311.88;5089750;28;20199;-65
2022/09/13 07:04:22;;;;;;;9.63;8.75;;;15.60;99.90;;;-141.84;76.78;19334.22;5089903;28;20601;-65
2022/09/13 07:06:50;;;;;;;9.52;8.40;;;15.60;99.90;;;-141.84;76.85;19334.22;5090072;28;20269;-64
2022/09/13 07:09:21;;;;;;;13.48;8.75;;;15.70;99.90;;;-141.84;77.31;19328.13;5089901;28;20204;-65
2022/09/13 07:11:53;;;;;;;9.40;8.40;;;15.70;99.90;;;-141.84;76.97;19332.19;5090341;28;20204;-64
2022/09/13 07:14:23;;;;;;;9.70;8.25;;;15.70;99.90;;;-141.84;77.54;19269.22;5089469;28;20208;-64
2022/09/13 07:16:54;;;;;;;12.35;9.55;;;15.70;99.90;;;-141.84;77.54;19305.78;5089702;28;20184;-65
2022/09/13 07:19:25;;;;;;;11.27;9.27;;;15.70;99.90;;;-141.84;77.08;19317.97;5090293;28;20644;-66
2022/09/13 07:21:55;;;;;;;12.85;9.63;;;15.70;99.90;;;-141.84;77.73;19311.88;5090575;28;20211;-64
2022/09/13 07:24:24;;;;;;;12.50;11.18;;;15.60;99.90;;;-141.84;77.78;19293.59;5090222;28;20207;-65
2022/09/13 07:26:52;;;;;;;11.15;9.30;;;15.60;99.90;;;-141.84;78.34;19287.50;5090492;28;20204;-65
2022/09/13 07:29:23;;;;;;;11.25;9.13;;;15.60;99.90;;;-141.84;78.80;19291.56;5090334;28;20203;-63
2022/09/13 07:31:55;;;;;;;10.05;8.90;;;15.60;99.90;;;-141.84;78.84;19248.88;5090319;28;20238;-65
2022/09/13 07:34:26;;;;;;;9.15;8.32;;;15.60;99.90;;;-141.84;78.69;19275.31;5090135;28;20298;-65
2022/09/13 07:36:54;;;;;;;10.90;9.77;;;15.70;99.90;;;-141.84;77.30;19313.91;5090013;28;20670;-64
2022/09/13 07:39:23;;;;;;;10.70;8.63;;;15.80;99.90;;;-141.84;77.09;19354.56;5090338;28;20208;-64
2022/09/13 07:41:52;;;;;;;10.18;9.07;;;15.90;99.90;;;-141.84;74.92;19413.47;5090940;28;20196;-65
2022/09/13 07:44:21;;;;;;;9.68;8.68;;;16.00;99.90;;;-141.84;75.37;19385.03;5094167;28;20561;-65
2022/09/13 07:46:49;;;;;;;9.43;8.52;;;16.10;99.90;;;-141.84;75.98;19385.03;5093377;28;20738;-65
2022/09/13 07:49:19;;;;;;;9.18;8.15;;;16.20;99.90;;;-141.84;75.17;19419.59;5093777;28;20687;-64
2022/09/13 07:51:50;;;;;;;9.23;8.23;;;16.30;99.90;;;-141.84;75.22;19456.16;5094007;28;20203;-64
2022/09/13 07:54:19;;;;;;;9.70;8.30;;;16.50;99.90;;;-141.84;73.15;19525.25;5093277;28;20223;-64
2022/09/13 07:56:49;;;;;;;9.32;8.25;;;16.70;99.90;;;-141.84;72.45;19539.47;5093348;28;20195;-64
2022/09/13 07:59:18;;;;;;;11.50;9.40;;;16.80;99.90;;;-141.84;70.85;19580.13;5093049;28;20204;-65
2022/09/13 08:01:50;;;;;;;9.90;8.90;;;16.80;99.90;;;-141.84;70.97;19614.66;5093234;28;20210;-64
2022/09/13 08:04:25;;;;;;;8.80;7.90;;;16.90;99.90;;;-141.84;71.11;19626.88;5093064;28;20272;-65
2022/09/13 08:06:53;;;;;;;9.90;8.93;;;17.10;99.90;;;-141.84;71.02;19647.19;5093377;28;20219;-65
2022/09/13 08:09:21;;;;;;;14.32;9.40;;;17.10;99.90;;;-141.84;71.15;19653.28;5093199;28;20200;-64
2022/09/13 08:11:51;;;;;;;9.23;8.35;;;17.20;99.90;;;-141.84;70.51;19675.63;5092973;28;20694;-64
2022/09/13 08:14:22;;;;;;;9.90;8.88;;;17.40;99.90;;;-141.84;69.15;19761.00;5092817;28;20682;-64
2022/09/13 08:16:50;;;;;;;11.02;9.32;;;17.50;99.90;;;-141.84;68.91;19789.44;5093330;28;20184;-65
2022/09/13 08:19:20;;;;;;;8.77;7.88;;;17.60;99.90;;;-141.84;69.23;19824.00;5093094;28;20204;-65
2022/09/13 08:21:48;;;;;;;8.32;7.05;;;17.70;99.90;;;-141.84;69.31;19785.38;5092857;28;20602;-65
2022/09/13 08:24:20;;;;;;;8.65;7.85;;;17.80;99.90;;;-141.84;69.06;19809.78;5092655;28;20235;-64
2022/09/13 08:26:48;;;;;;;9.57;7.88;;;17.80;99.90;;;-141.84;67.83;19937.81;5092730;28;20188;-65
2022/09/13 08:29:17;;;;;;;8.20;7.40;;;17.80;99.90;;;-141.84;68.58;19832.13;5092654;28;20550;-64
2022/09/13 08:31:45;;;;;;;9.35;8.00;;;17.90;99.90;;;-141.84;68.40;19866.69;5092607;28;20196;-64
2022/09/13 08:34:16;;;;;;;9.23;7.43;;;17.90;99.90;;;-141.84;68.45;19923.59;5092781;28;20204;-64
2022/09/13 08:36:46;;;;;;;8.85;7.82;;;18.10;99.90;;;-141.84;66.87;19976.44;5092843;28;20184;-64
2022/09/13 08:39:14;;;;;;;8.02;7.28;;;18.20;99.90;;;-141.84;66.51;20045.53;5092755;28;20208;-64
2022/09/13 08:42:24;;;;;;;10.07;8.43;;;18.40;99.90;;;-141.84;66.51;20027.25;5092518;28;20570;-64
2022/09/13 08:44:58;;;;;;;8.20;7.30;;;18.30;99.90;;;-141.84;66.75;20086.19;5092724;28;20207;-64
2022/09/13 08:47:40;;;;;;;8.60;7.78;;;18.50;99.90;;;-141.84;65.23;20165.44;5092187;28;20185;-66
2022/09/13 08:50:19;;;;;;;8.15;7.30;;;18.60;99.90;;;-141.84;66.10;20118.69;5092268;28;20192;-63
2022/09/13 08:53:15;;;;;;;7.45;6.75;;;18.80;99.90;;;-141.84;65.57;20147.16;5091980;28;20247;-64
2022/09/13 08:55:55;;;;;;;7.32;6.72;;;18.70;99.90;;;-141.84;66.42;20082.13;5092350;28;20212;-65
2022/09/13 08:58:45;;;;;;;8.60;6.97;;;18.60;99.90;;;-141.84;66.94;20049.59;5092249;28;20195;-64
2022/09/13 09:01:30;;;;;;;8.82;7.57;;;18.60;99.90;;;-141.84;65.84;20080.09;5092333;28;20212;-65
2022/09/13 09:04:10;;;;;;;7.53;6.75;;;18.60;99.90;;;-141.84;66.10;20122.78;5092162;28;20188;-64
2022/09/13 09:06:38;;;;;;;7.40;6.70;;;18.70;99.90;;;-141.84;65.22;20179.69;5092244;28;20192;-65
2022/09/13 09:09:16;;;;;;;6.72;6.13;;;18.80;99.90;;;-141.84;65.65;20151.22;5092329;28;20366;-64
2022/09/13 09:11:53;;;;;;;7.25;6.65;;;18.90;99.90;;;-141.84;64.92;20204.06;5091973;28;20688;-64
2022/09/13 09:14:30;;;;;;;8.68;7.47;;;19.00;99.90;;;-141.84;63.54;20256.91;5092139;28;20615;-64
2022/09/13 09:17:05;;;;;;;8.15;7.32;;;19.00;99.90;;;-141.84;63.08;20350.41;5092084;28;20187;-63
2022/09/13 09:19:39;;;;;;;9.00;7.38;;;19.10;99.90;;;-141.84;62.86;20415.47;5092000;28;20200;-66
2022/09/13 09:22:16;;;;;;;8.70;7.28;;;19.20;99.90;;;-141.84;62.71;20429.69;5092287;28;20188;-64
2022/09/13 09:24:53;;;;;;;7.65;6.68;;;19.20;99.90;;;-141.84;64.30;20313.84;5092242;28;20207;-64
2022/09/13 09:27:22;;;;;;;7.55;6.82;;;19.20;99.90;;;-141.84;63.60;20411.41;5092050;28;20191;-64
2022/09/13 09:29:56;;;;;;;8.00;7.22;;;19.30;99.90;;;-141.84;60.15;20657.34;5091578;28;20196;-65
2022/09/13 09:33:05;;;;;;;8.35;7.22;;;19.60;99.90;;;-141.84;60.88;20586.22;5091440;28;20186;-64
2022/09/13 09:35:56;;;;;;;7.80;6.97;;;19.60;99.90;;;-141.84;60.89;20643.13;5091711;28;20204;-65
2022/09/13 09:38:40;;;;;;;8.32;6.88;;;19.80;99.90;;;-141.84;60.19;20663.47;5091556;28;20209;-63
2022/09/13 09:41:21;;;;;;;7.18;6.50;;;20.00;99.90;;;-141.84;59.20;20771.19;5091727;28;20184;-64
2022/09/13 09:43:58;;;;;;;6.40;5.80;;;20.10;99.90;;;-141.84;58.89;20830.16;5091574;28;20208;-65
2022/09/13 09:46:32;;;;;;;6.25;5.65;;;20.10;99.90;;;-141.84;58.52;20907.41;5091338;28;20176;-65
2022/09/13 09:50:07;;;;;;;6.47;5.88;;;20.40;99.90;;;-141.84;58.09;20929.75;5091781;28;20189;-64
2022/09/13 09:52:02;;;;;;;5.85;5.25;;;20.50;99.90;;;-141.84;55.83;21120.88;5091427;28;20200;-64
2022/09/13 09:54:30;;;;;;;6.20;5.70;;;20.80;99.90;;;-141.84;56.79;21110.69;5091358;28;20191;-64
2022/09/13 09:56:59;;;;;;;6.30;5.70;;;20.80;99.90;;;-141.84;56.22;21094.44;5091503;28;20326;-65
2022/09/13 09:59:32;;;;;;;5.97;5.40;;;20.80;99.90;;;-141.84;55.23;21163.56;5090771;28;20203;-65
2022/09/13 10:02:06;;;;;;;5.88;5.22;;;20.90;99.90;;;-141.84;54.67;21236.75;5091326;28;20184;-65
2022/09/13 10:04:35;;;;;;;6.20;5.60;;;21.10;99.90;;;-141.84;54.00;21240.81;5090527;28;20237;-65
2022/09/13 10:07:23;;;;;;;6.10;5.57;;;21.20;99.90;;;-141.84;54.55;21190.00;5091270;28;20200;-65
2022/09/13 10:10:03;;;;;;;5.75;5.18;;;21.20;99.90;;;-141.84;53.09;21230.66;5091489;28;20192;-65
2022/09/13 10:12:36;;;;;;;6.22;5.13;;;21.30;99.90;;;-141.84;54.40;21234.72;5090748;28;20184;-64
2022/09/13 10:15:18;;;;;;;5.10;4.70;;;21.20;99.90;;;-141.84;54.30;21250.97;5090498;28;20656;-64
2022/09/13 10:18:07;;;;;;;6.43;4.18;;;21.30;99.90;;;-141.84;53.44;21295.72;5090827;28;20603;-64
2022/09/13 10:21:05;;;;;;;4.63;4.32;;;21.30;99.90;;;-141.84;52.82;21277.41;5091116;28;20242;-65
2022/09/13 10:23:34;;;;;;;6.05;5.43;;;21.30;99.90;;;-141.84;53.39;21295.72;5090702;28;20211;-65
2022/09/13 10:26:10;;;;;;;4.80;4.40;;;21.40;99.90;;;-141.84;52.03;21368.91;5090852;28;20211;-64
2022/09/13 10:28:46;;;;;;;5.13;4.43;;;21.50;99.90;;;-141.84;51.32;21415.66;5090505;28;20187;-65
2022/09/13 10:31:18;;;;;;;7.40;5.40;;;21.50;99.90;;;-141.84;51.53;21423.81;5090847;28;20249;-65
2022/09/13 10:33:59;;;;;;;4.53;4.13;;;21.70;99.90;;;-141.84;51.16;21497.00;5090992;28;20267;-64